Time;durP1;ratioP1;P1;durP2;ratioP2;P2;SDS_P1;SDS_P2;PMS_P1;PMS_P2;Temp;Humidity;BMP_temperature;BMP_pressure;BME280_temperature;BME280_humidity;BME280_pressure;Samples;Min_cycle;Max_cycle;Signal;HPM_P1;HPM_P2
2021/01/18 00:00:43;;;;;;;7.65;2.08;;;;;;;11.01;57.35;101250.28;5031759;28;20087;-65
2021/01/18 00:03:08;;;;;;;7.53;2.45;;;;;;;10.98;57.96;101249.28;5029480;28;20052;-66
2021/01/18 00:05:34;;;;;;;4.72;2.35;;;;;;;10.91;58.03;101258.84;5034131;28;20072;-66
2021/01/18 00:07:59;;;;;;;13.05;2.72;;;;;;;10.81;57.53;101256.88;5046254;28;20029;-65
2021/01/18 00:10:25;;;;;;;7.95;3.03;;;;;;;10.74;58.20;101260.22;5031011;28;20455;-65
2021/01/18 00:12:50;;;;;;;3.85;2.22;;;;;;;10.69;58.01;101256.59;5031602;28;20083;-65
2021/01/18 00:15:15;;;;;;;6.22;2.75;;;;;;;10.66;58.08;101260.03;5046104;28;20402;-66
2021/01/18 00:17:41;;;;;;;4.45;2.70;;;;;;;10.67;58.24;101253.91;5014438;28;20441;-65
2021/01/18 00:20:06;;;;;;;5.65;2.67;;;;;;;10.68;58.26;101253.06;5027683;28;20040;-66
2021/01/18 00:22:32;;;;;;;5.90;2.45;;;;;;;10.66;58.44;101256.50;5031181;28;20457;-65
2021/01/18 00:24:57;;;;;;;3.67;2.10;;;;;;;10.62;57.89;101257.31;5031193;28;20038;-66
2021/01/18 00:27:22;;;;;;;4.35;2.45;;;;;;;10.57;58.49;101261.56;5030428;28;20108;-66
2021/01/18 00:29:48;;;;;;;6.13;2.85;;;;;;;10.53;58.22;101267.63;5030803;28;20116;-65
2021/01/18 00:32:13;;;;;;;5.20;2.28;;;;;;;10.48;58.60;101264.00;5030331;28;20091;-66
2021/01/18 00:34:38;;;;;;;10.88;2.63;;;;;;;10.43;58.47;101271.81;5029964;28;20497;-65
2021/01/18 00:37:04;;;;;;;4.78;2.65;;;;;;;10.42;58.63;101262.13;5029909;28;20115;-66
2021/01/18 00:39:29;;;;;;;6.63;2.80;;;;;;;10.39;58.47;101260.28;5030798;28;20034;-65
2021/01/18 00:41:54;;;;;;;4.10;3.30;;;;;;;10.38;58.41;101257.59;5030861;28;20092;-66
2021/01/18 00:44:20;;;;;;;8.82;3.03;;;;;;;10.38;58.45;101261.13;5020941;28;20426;-66
2021/01/18 00:46:45;;;;;;;5.25;2.20;;;;;;;10.37;58.67;101264.63;5024352;28;20046;-65
2021/01/18 00:49:11;;;;;;;4.53;2.50;;;;;;;10.35;58.57;101265.47;5030776;28;20052;-66
2021/01/18 00:51:36;;;;;;;4.97;2.17;;;;;;;10.32;58.75;101268.00;5045867;28;20535;-65
2021/01/18 00:54:01;;;;;;;4.93;2.40;;;;;;;10.27;58.48;101267.00;5030631;28;20564;-65
2021/01/18 00:56:27;;;;;;;3.53;2.20;;;;;;;10.21;58.65;101265.13;5029877;28;20207;-66
2021/01/18 00:58:52;;;;;;;8.30;2.35;;;;;;;10.18;58.90;101267.66;5030380;28;20501;-65
2021/01/18 01:01:17;;;;;;;7.30;2.40;;;;;;;10.12;58.59;101267.47;5029500;28;20044;-65
2021/01/18 01:03:43;;;;;;;3.03;2.53;;;;;;;10.07;58.88;101273.47;5029400;28;20041;-65
2021/01/18 01:06:08;;;;;;;4.07;2.25;;;;;;;10.03;59.09;101267.25;5045218;28;20095;-66
2021/01/18 01:08:34;;;;;;;5.82;2.13;;;;;;;10.00;58.70;101267.16;5030783;28;20433;-65
2021/01/18 01:10:59;;;;;;;8.27;2.20;;;;;;;9.94;59.04;101262.63;5036463;28;20519;-66
2021/01/18 01:13:24;;;;;;;3.53;2.40;;;;;;;9.86;58.75;101264.16;5022972;28;20520;-66
2021/01/18 01:15:50;;;;;;;6.95;2.58;;;;;;;9.81;59.04;101262.25;5029843;28;20087;-65
2021/01/18 01:18:15;;;;;;;8.80;4.57;;;;;;;9.76;59.15;101266.53;5029636;28;20094;-66
2021/01/18 01:20:40;;;;;;;13.82;8.38;;;;;;;9.74;59.17;101269.13;5044797;28;20064;-65
2021/01/18 01:23:06;;;;;;;9.68;3.72;;;;;;;9.72;59.51;101278.72;5030035;28;20041;-65
2021/01/18 01:25:31;;;;;;;13.23;5.82;;;;;;;9.68;59.64;101270.69;5023626;28;20042;-65
2021/01/18 01:27:57;;;;;;;10.00;4.97;;;;;;;9.65;59.60;101268.84;5030002;28;20536;-65
2021/01/18 01:30:22;;;;;;;8.65;5.32;;;;;;;9.61;59.67;101261.72;5029585;28;20160;-65
2021/01/18 01:32:47;;;;;;;6.45;4.93;;;;;;;9.57;59.78;101266.03;5028666;28;20052;-65
2021/01/18 01:35:13;;;;;;;7.45;3.85;;;;;;;9.53;59.59;101261.50;5038904;28;20113;-65
2021/01/18 01:37:38;;;;;;;5.25;3.13;;;;;;;9.50;59.63;101258.81;5011412;28;20410;-65
2021/01/18 01:40:03;;;;;;;5.85;2.50;;;;;;;9.48;59.73;101254.31;5014682;28;20040;-65
2021/01/18 01:42:29;;;;;;;4.13;2.90;;;;;;;9.45;59.79;101251.63;5029172;28;20052;-65
2021/01/18 01:44:54;;;;;;;4.07;2.60;;;;;;;9.42;59.91;101247.16;5043679;28;20042;-66
2021/01/18 01:47:19;;;;;;;7.03;2.75;;;;;;;9.39;60.00;101241.78;5029282;28;20134;-65
2021/01/18 01:49:45;;;;;;;9.82;2.83;;;;;;;9.36;59.79;101236.44;5024668;28;20048;-65
2021/01/18 01:52:10;;;;;;;7.75;3.20;;;;;;;9.35;59.78;101236.41;5044783;28;20124;-66
2021/01/18 01:54:35;;;;;;;6.03;3.00;;;;;;;9.32;60.01;101231.06;5016150;28;20049;-65
2021/01/18 01:57:01;;;;;;;12.40;3.45;;;;;;;9.29;59.88;101230.94;5025477;28;20042;-66
2021/01/18 01:59:26;;;;;;;6.20;3.15;;;;;;;9.26;59.61;101231.75;5028754;28;20036;-65
2021/01/18 02:01:51;;;;;;;6.68;3.47;;;;;;;9.24;60.18;101237.84;5015112;28;20038;-65
2021/01/18 02:04:17;;;;;;;8.20;4.03;;;;;;;9.22;60.40;101229.00;5007452;28;20076;-65
2021/01/18 02:06:42;;;;;;;4.60;3.33;;;;;;;9.23;60.43;101242.22;5009866;28;20048;-65
2021/01/18 02:09:07;;;;;;;7.25;3.35;;;;;;;9.23;60.21;101244.84;5009979;28;20037;-66
2021/01/18 02:11:33;;;;;;;8.48;2.90;;;;;;;9.25;60.66;101244.91;5024098;28;20034;-65
2021/01/18 02:13:58;;;;;;;9.52;4.18;;;;;;;9.25;60.38;101248.44;5009841;28;20037;-66
2021/01/18 02:16:24;;;;;;;6.28;3.80;;;;;;;9.26;60.77;101242.28;5008324;28;20049;-65
2021/01/18 02:18:49;;;;;;;4.78;2.70;;;;;;;9.26;60.44;101251.94;5009388;28;20037;-65
2021/01/18 02:21:14;;;;;;;3.65;1.80;;;;;;;9.26;60.30;101251.94;5009358;28;20050;-66
2021/01/18 02:23:40;;;;;;;3.53;2.50;;;;;;;9.25;60.33;101244.91;5009628;28;20053;-65
2021/01/18 02:26:05;;;;;;;2.85;2.00;;;;;;;9.26;60.21;101241.38;5012664;28;20053;-65
2021/01/18 02:28:31;;;;;;;7.78;3.05;;;;;;;9.28;60.26;101235.31;4999635;28;20079;-65
2021/01/18 02:30:56;;;;;;;8.57;2.75;;;;;;;9.31;60.56;101226.63;5009538;28;20125;-65
2021/01/18 02:33:21;;;;;;;5.15;3.38;;;;;;;9.29;60.48;101221.31;5013032;28;20070;-65
2021/01/18 02:35:47;;;;;;;7.40;3.60;;;;;;;9.29;60.30;101229.22;5052672;28;20406;-65
2021/01/18 02:38:12;;;;;;;9.90;4.25;;;;;;;9.31;60.59;101231.91;5030673;28;20046;-66
2021/01/18 02:40:38;;;;;;;18.40;6.35;;;;;;;9.33;60.58;101236.34;5022910;28;20034;-66
2021/01/18 02:43:03;;;;;;;12.55;4.47;;;;;;;9.38;60.43;101226.84;5032514;28;20053;-65
2021/01/18 02:45:28;;;;;;;7.80;4.38;;;;;;;9.42;60.28;101223.44;5013542;28;20053;-65
2021/01/18 02:47:54;;;;;;;6.38;2.83;;;;;;;9.43;60.16;101219.06;5011459;28;20407;-65
2021/01/18 02:50:19;;;;;;;9.45;2.38;;;;;;;9.44;60.01;101212.94;5011384;28;20189;-65
2021/01/18 02:52:45;;;;;;;5.63;2.42;;;;;;;9.42;60.50;101207.63;5016541;28;20046;-65
2021/01/18 02:55:10;;;;;;;6.65;2.28;;;;;;;9.41;60.24;101208.47;5027103;28;20444;-65
2021/01/18 02:57:35;;;;;;;3.85;2.85;;;;;;;9.40;60.38;101216.31;5012634;28;20125;-65
2021/01/18 03:00:01;;;;;;;6.03;2.45;;;;;;;9.37;60.42;101211.88;5013090;28;20034;-65
2021/01/18 03:02:26;;;;;;;2.15;1.75;;;;;;;9.33;60.43;101202.09;5011898;28;20038;-65
2021/01/18 03:04:51;;;;;;;7.50;1.80;;;;;;;9.29;60.50;101201.97;5011989;28;20045;-65
2021/01/18 03:07:17;;;;;;;6.25;1.90;;;;;;;9.28;60.39;101194.91;5011673;28;20660;-66
2021/01/18 03:09:42;;;;;;;11.55;1.80;;;;;;;9.24;60.62;101196.59;5012528;28;20137;-65
2021/01/18 03:12:07;;;;;;;5.47;2.15;;;;;;;9.23;60.54;101184.25;5012581;28;20050;-65
2021/01/18 03:14:33;;;;;;;5.13;2.70;;;;;;;9.20;60.59;101181.53;5012390;28;20048;-65
2021/01/18 03:16:58;;;;;;;3.17;2.22;;;;;;;9.16;60.63;101195.47;5026874;28;20438;-66
2021/01/18 03:19:24;;;;;;;5.90;1.77;;;;;;;9.12;60.85;101185.72;5032249;28;20423;-65
2021/01/18 03:21:49;;;;;;;4.85;1.98;;;;;;;9.09;60.65;101172.44;5045072;28;20045;-65
2021/01/18 03:24:14;;;;;;;6.90;2.85;;;;;;;9.05;60.58;101174.13;5012897;28;20070;-65
2021/01/18 03:26:40;;;;;;;2.72;2.03;;;;;;;9.02;60.74;101163.47;5011204;28;20041;-65
2021/01/18 03:29:05;;;;;;;4.93;1.98;;;;;;;9.00;61.00;101174.81;5012202;28;20065;-65
2021/01/18 03:31:30;;;;;;;6.13;2.30;;;;;;;8.96;60.79;101163.31;5011790;28;20340;-65
2021/01/18 03:33:56;;;;;;;6.75;2.50;;;;;;;8.87;60.88;101154.25;5011795;28;20064;-65
2021/01/18 03:36:21;;;;;;;10.68;2.40;;;;;;;8.78;61.03;101162.78;5011532;28;20046;-65
2021/01/18 03:38:47;;;;;;;4.72;1.98;;;;;;;8.73;60.96;101165.25;5010854;28;20042;-65
2021/01/18 03:41:13;;;;;;;6.22;2.92;;;;;;;8.71;60.92;101177.50;5028198;28;20061;-66
2021/01/18 03:43:38;;;;;;;5.95;2.50;;;;;;;8.72;61.08;101155.63;5030611;28;20462;-65
2021/01/18 03:46:03;;;;;;;3.10;2.00;;;;;;;8.75;61.29;101154.78;5030568;28;20045;-65
2021/01/18 03:48:29;;;;;;;6.32;2.35;;;;;;;8.74;61.13;101150.38;5011804;28;20050;-65
2021/01/18 03:50:54;;;;;;;4.65;2.10;;;;;;;8.73;61.28;101143.31;5012310;28;20034;-65
2021/01/18 03:53:19;;;;;;;3.97;1.90;;;;;;;8.70;61.40;101151.16;5011607;28;20419;-65
2021/01/18 03:55:46;;;;;;;3.13;1.80;;;;;;;8.69;61.30;101158.16;5045242;28;20175;-65
2021/01/18 03:58:11;;;;;;;3.55;1.95;;;;;;;8.71;61.05;101161.72;5015936;28;20081;-65
2021/01/18 04:00:36;;;;;;;4.43;1.90;;;;;;;8.67;61.08;101158.94;5014879;28;20088;-65
2021/01/18 04:03:01;;;;;;;2.25;1.75;;;;;;;8.62;61.17;101156.19;5010280;28;20092;-64
2021/01/18 04:05:27;;;;;;;5.03;1.77;;;;;;;8.63;61.10;101147.44;5055019;28;20176;-65
2021/01/18 04:07:52;;;;;;;5.97;2.65;;;;;;;8.64;61.26;101145.69;5016281;28;20033;-65
2021/01/18 04:10:18;;;;;;;8.30;3.00;;;;;;;8.64;61.40;101146.59;5028375;28;20052;-65
2021/01/18 04:12:43;;;;;;;15.02;5.75;;;;;;;8.67;61.32;101153.66;5024173;28;20414;-65
2021/01/18 04:15:09;;;;;;;9.63;4.10;;;;;;;8.69;61.36;101159.88;5031233;28;20517;-65
2021/01/18 04:17:34;;;;;;;13.70;4.85;;;;;;;8.71;61.31;101172.25;5030310;28;20033;-65
2021/01/18 04:19:59;;;;;;;7.35;5.47;;;;;;;8.72;61.50;101178.41;5029732;28;20049;-64
2021/01/18 04:22:25;;;;;;;8.43;4.68;;;;;;;8.73;61.41;101195.97;5030301;28;20529;-64
2021/01/18 04:24:50;;;;;;;9.80;4.50;;;;;;;8.74;61.32;101198.66;5030905;28;20038;-65
2021/01/18 04:27:15;;;;;;;6.93;3.92;;;;;;;8.75;61.15;101204.81;5030025;28;20067;-65
2021/01/18 04:29:41;;;;;;;6.65;4.18;;;;;;;8.74;61.20;101192.47;5030233;28;20446;-65
2021/01/18 04:32:06;;;;;;;8.05;3.55;;;;;;;8.74;61.44;101203.91;5029965;28;20039;-64
2021/01/18 04:34:31;;;;;;;13.40;3.55;;;;;;;8.80;61.62;101208.44;5029928;28;20045;-65
2021/01/18 04:36:57;;;;;;;11.63;4.13;;;;;;;8.89;61.59;101214.00;5029214;28;20084;-65
2021/01/18 04:39:22;;;;;;;3.88;2.05;;;;;;;9.00;61.51;101222.22;5045716;28;20037;-65
2021/01/18 04:41:48;;;;;;;5.82;2.97;;;;;;;9.12;61.42;101212.06;5030975;28;20508;-65
2021/01/18 04:44:13;;;;;;;4.50;2.80;;;;;;;9.22;61.56;101216.72;5042103;28;20056;-65
2021/01/18 04:46:39;;;;;;;9.80;5.72;;;;;;;9.30;61.18;101204.66;5012363;28;20423;-65
2021/01/18 04:49:04;;;;;;;9.38;5.03;;;;;;;9.39;61.36;101201.38;5013294;28;20121;-65
2021/01/18 04:51:29;;;;;;;14.20;2.70;;;;;;;9.46;61.10;101196.31;5011780;28;20049;-65
2021/01/18 04:53:55;;;;;;;7.20;2.50;;;;;;;9.53;61.21;101187.72;5030343;28;20053;-65
2021/01/18 04:56:20;;;;;;;4.45;2.60;;;;;;;9.56;61.24;101190.44;5026331;28;20049;-65
2021/01/18 04:58:45;;;;;;;6.78;2.80;;;;;;;9.58;60.93;101186.09;5011162;28;20034;-65
2021/01/18 05:01:11;;;;;;;7.15;2.25;;;;;;;9.63;61.10;101173.06;5008171;28;20073;-65
2021/01/18 05:03:36;;;;;;;4.35;2.08;;;;;;;9.65;61.05;101152.88;5008539;28;20054;-65
2021/01/18 05:06:02;;;;;;;6.10;2.55;;;;;;;9.68;60.98;101141.53;5009883;28;20038;-65
2021/01/18 05:08:27;;;;;;;10.45;3.60;;;;;;;9.67;61.03;101147.66;5008912;28;20058;-65
2021/01/18 05:10:52;;;;;;;17.30;7.13;;;;;;;9.67;60.94;101138.00;5009173;28;20740;-65
2021/01/18 05:13:18;;;;;;;24.10;9.30;;;;;;;9.68;61.34;101160.88;5024028;28;20125;-65
2021/01/18 05:15:43;;;;;;;22.25;13.45;;;;;;;9.71;61.39;101167.97;5010866;28;20133;-65
2021/01/18 05:18:08;;;;;;;19.58;13.48;;;;;;;9.74;60.98;101158.38;5009986;28;20044;-65
2021/01/18 05:20:34;;;;;;;19.05;13.90;;;;;;;9.78;60.93;101149.69;5029229;28;20052;-65
2021/01/18 05:23:07;;;;;;;9.43;4.38;;;;;;;9.82;61.17;101156.84;5029850;28;20454;-65
2021/01/18 05:25:32;;;;;;;14.77;8.68;;;;;;;9.82;61.36;101127.84;5028040;28;20061;-65
2021/01/18 05:27:58;;;;;;;6.90;4.93;;;;;;;9.80;61.22;101128.66;5030123;28;20431;-65
2021/01/18 05:30:23;;;;;;;20.25;18.15;;;;;;;9.79;61.27;101150.59;5029235;28;20041;-65
2021/01/18 05:32:48;;;;;;;10.98;9.90;;;;;;;9.81;60.84;101157.69;5024125;28;20034;-64
2021/01/18 05:35:14;;;;;;;16.42;14.68;;;;;;;9.86;60.94;101147.25;5010395;28;20040;-65
2021/01/18 05:37:39;;;;;;;11.15;9.30;;;;;;;9.91;60.81;101156.19;5023679;28;20041;-65
2021/01/18 05:40:04;;;;;;;14.93;8.25;;;;;;;9.94;61.27;101161.53;5029498;28;20029;-65
2021/01/18 05:42:30;;;;;;;17.98;8.20;;;;;;;9.96;60.94;101139.63;5045075;28;20073;-65
2021/01/18 05:44:55;;;;;;;10.40;7.63;;;;;;;9.97;61.33;101129.97;5044803;28;20025;-65
2021/01/18 05:47:21;;;;;;;10.48;7.57;;;;;;;10.02;61.10;101133.59;5031085;28;20068;-65
2021/01/18 05:49:46;;;;;;;16.55;10.52;;;;;;;10.07;61.36;101129.31;5028794;28;20038;-65
2021/01/18 05:52:11;;;;;;;22.45;12.88;;;;;;;10.14;61.06;101122.44;5029400;28;20033;-65
2021/01/18 05:54:37;;;;;;;15.10;9.13;;;;;;;10.22;60.71;101111.25;5029413;28;20037;-66
2021/01/18 05:57:02;;;;;;;17.45;10.15;;;;;;;10.32;60.61;101123.75;5029618;28;20143;-65
2021/01/18 05:59:27;;;;;;;15.48;9.52;;;;;;;10.39;60.96;101104.56;5029673;28;20045;-67
2021/01/18 06:01:53;;;;;;;49.95;26.90;;;;;;;10.41;60.68;101109.91;5029418;28;20058;-67
2021/01/18 06:04:18;;;;;;;25.10;16.52;;;;;;;10.44;60.81;101106.41;5023211;28;20057;-67
2021/01/18 06:06:43;;;;;;;41.63;20.38;;;;;;;10.45;60.71;101102.91;5028515;28;20398;-67
2021/01/18 06:09:09;;;;;;;34.65;17.83;;;;;;;10.47;61.00;101111.78;5049075;28;20033;-67
2021/01/18 06:11:34;;;;;;;94.40;41.13;;;;;;;10.48;60.98;101105.63;5045025;28;20037;-68
2021/01/18 06:14:00;;;;;;;50.72;23.98;;;;;;;10.48;60.69;101101.25;5032446;28;20034;-67
2021/01/18 06:16:25;;;;;;;42.38;24.58;;;;;;;10.51;60.56;101103.94;5022585;28;20050;-68
2021/01/18 06:18:50;;;;;;;49.78;31.05;;;;;;;10.62;60.48;101117.38;5032568;28;20036;-67
2021/01/18 06:21:16;;;;;;;23.70;15.48;;;;;;;10.77;60.76;101121.22;5029463;28;20686;-68
2021/01/18 06:23:41;;;;;;;23.17;13.20;;;;;;;10.91;60.23;101121.50;5028773;28;20442;-67
2021/01/18 06:26:06;;;;;;;12.68;7.88;;;;;;;11.03;60.27;101118.19;5031198;28;20054;-67
2021/01/18 06:28:32;;;;;;;20.33;12.20;;;;;;;11.11;60.30;101112.22;5032348;28;20064;-67
2021/01/18 06:30:57;;;;;;;74.40;47.33;;;;;;;11.22;60.68;101093.03;5033115;28;20383;-66
2021/01/18 06:33:22;;;;;;;66.90;44.15;;;;;;;11.29;60.47;101084.34;5031226;28;20045;-66
2021/01/18 06:35:48;;;;;;;67.68;41.03;;;;;;;11.33;60.65;101094.09;5032501;28;20578;-66
2021/01/18 06:38:13;;;;;;;44.92;29.80;;;;;;;11.36;60.72;101102.97;5032143;28;20103;-66
2021/01/18 06:40:38;;;;;;;48.65;33.60;;;;;;;11.40;60.43;101102.19;5043697;28;20038;-66
2021/01/18 06:43:04;;;;;;;23.88;15.35;;;;;;;11.41;60.71;101103.06;5022816;28;20038;-67
2021/01/18 06:45:30;;;;;;;12.20;7.35;;;;;;;11.39;59.91;101115.38;5036084;28;20046;-67
2021/01/18 06:47:55;;;;;;;14.77;8.55;;;;;;;11.40;60.28;101107.47;5031552;28;20041;-66
2021/01/18 06:50:21;;;;;;;19.83;13.40;;;;;;;11.42;60.29;101104.84;5031080;28;20563;-67
2021/01/18 06:52:46;;;;;;;17.80;14.00;;;;;;;11.44;60.19;101108.41;5042691;28;20046;-66
2021/01/18 06:55:12;;;;;;;20.75;14.18;;;;;;;11.41;60.05;101117.19;5040448;28;20029;-67
2021/01/18 06:57:37;;;;;;;49.30;32.63;;;;;;;11.34;60.47;101117.94;5024038;28;20052;-68
2021/01/18 07:00:03;;;;;;;85.03;54.63;;;;;;;11.30;60.36;101115.19;5026846;28;20164;-68
2021/01/18 07:02:29;;;;;;;137.50;88.43;;;;;;;11.29;60.25;101124.00;5044704;28;20060;-68
2021/01/18 07:04:54;;;;;;;99.50;64.50;;;;;;;11.26;60.58;101121.28;5028985;28;20509;-67
2021/01/18 07:07:20;;;;;;;104.72;66.13;;;;;;;11.24;60.63;101115.97;5025656;28;20046;-68
2021/01/18 07:09:45;;;;;;;117.68;82.25;;;;;;;11.25;60.63;101122.16;5047940;28;20045;-67
2021/01/18 07:12:10;;;;;;;113.90;80.57;;;;;;;11.29;60.33;101116.94;5046939;28;20115;-69
2021/01/18 07:14:36;;;;;;;110.75;71.75;;;;;;;11.33;60.63;101129.38;5029926;28;20080;-68
2021/01/18 07:17:01;;;;;;;139.32;94.85;;;;;;;11.34;60.55;101127.63;5047113;28;20045;-67
2021/01/18 07:19:27;;;;;;;137.05;92.47;;;;;;;11.39;61.22;101133.88;5029555;28;20041;-68
2021/01/18 07:21:53;;;;;;;132.93;88.68;;;;;;;11.41;60.53;101142.72;5030707;28;20042;-67
2021/01/18 07:24:18;;;;;;;109.60;78.72;;;;;;;11.39;60.45;101147.09;5022454;28;20045;-68
2021/01/18 07:26:46;;;;;;;87.63;57.78;;;;;;;11.39;60.85;101161.19;5017274;28;20038;-67
2021/01/18 07:29:12;;;;;;;49.42;33.95;;;;;;;11.41;60.72;101169.16;5012373;28;20130;-68
2021/01/18 07:31:37;;;;;;;56.55;34.10;;;;;;;11.42;61.04;101170.94;5012446;28;20492;-67
2021/01/18 07:34:02;;;;;;;43.20;30.33;;;;;;;11.45;61.20;101171.88;5011888;28;20030;-65
2021/01/18 07:36:28;;;;;;;29.45;15.88;;;;;;;11.47;60.96;101167.50;5011588;28;20092;-65
2021/01/18 07:38:53;;;;;;;51.13;29.50;;;;;;;11.54;60.95;101168.53;5012190;28;20530;-65
2021/01/18 07:41:20;;;;;;;25.15;16.48;;;;;;;11.62;61.54;101163.38;5011379;28;20038;-66
2021/01/18 07:43:45;;;;;;;21.42;14.23;;;;;;;11.70;60.93;101177.59;5009239;28;20117;-66
2021/01/18 07:46:11;;;;;;;27.25;18.23;;;;;;;11.75;61.26;101178.63;5011297;28;20471;-69
2021/01/18 07:48:36;;;;;;;41.83;27.85;;;;;;;11.81;61.43;101184.91;5010793;28;20038;-66
2021/01/18 07:51:01;;;;;;;45.17;30.95;;;;;;;11.84;61.73;101182.31;5010822;28;20050;-66
2021/01/18 07:53:27;;;;;;;37.22;25.33;;;;;;;11.87;61.72;101185.00;5011135;28;20099;-68
2021/01/18 07:55:52;;;;;;;47.08;26.60;;;;;;;11.94;61.77;101175.44;5011161;28;20040;-69
2021/01/18 07:58:17;;;;;;;32.00;21.60;;;;;;;12.01;62.00;101184.34;5017526;28;20045;-65
2021/01/18 08:00:43;;;;;;;22.92;15.73;;;;;;;12.06;62.12;101178.28;5025472;28;20465;-64
2021/01/18 08:03:08;;;;;;;20.98;15.32;;;;;;;12.12;61.65;101167.78;5028718;28;20503;-64
2021/01/18 08:05:33;;;;;;;26.27;15.18;;;;;;;12.16;61.90;101168.69;5040596;28;20068;-65
2021/01/18 08:07:59;;;;;;;46.78;27.75;;;;;;;12.19;61.51;101174.06;5016122;28;20060;-63
2021/01/18 08:10:24;;;;;;;62.85;32.78;;;;;;;12.21;61.63;101174.94;5024602;28;20049;-63
2021/01/18 08:12:50;;;;;;;66.97;38.25;;;;;;;12.23;61.63;101181.16;5029689;28;20053;-63
2021/01/18 08:15:15;;;;;;;78.32;44.13;;;;;;;12.26;61.68;101181.22;5029233;28;20449;-62
2021/01/18 08:17:40;;;;;;;99.60;49.22;;;;;;;12.28;62.10;101185.66;5030166;28;20087;-64
2021/01/18 08:20:05;;;;;;;104.40;56.33;;;;;;;12.31;61.56;101192.78;5025337;28;20053;-63
2021/01/18 08:22:31;;;;;;;96.78;63.50;;;;;;;12.28;62.06;101200.66;5029320;28;20108;-65
2021/01/18 08:24:56;;;;;;;41.63;26.75;;;;;;;12.19;62.52;101219.06;5029748;28;20037;-63
2021/01/18 08:27:22;;;;;;;36.35;32.58;;;;;;;12.10;61.77;101224.19;5028013;28;20411;-63
2021/01/18 08:29:47;;;;;;;59.40;48.67;;;;;;;12.02;62.30;101223.16;5026186;28;20042;-68
2021/01/18 08:32:12;;;;;;;47.78;37.20;;;;;;;11.98;62.88;101215.19;5023812;28;20049;-66
2021/01/18 08:34:38;;;;;;;29.23;20.83;;;;;;;11.98;62.99;101211.63;5028829;28;20038;-66
2021/01/18 08:37:03;;;;;;;23.52;16.92;;;;;;;12.01;63.17;101201.13;5029783;28;20049;-66
2021/01/18 08:39:28;;;;;;;18.35;12.52;;;;;;;12.07;63.23;101209.16;5029510;28;20064;-66
2021/01/18 08:41:54;;;;;;;17.00;11.85;;;;;;;12.12;62.50;101222.47;5019690;28;20138;-66
2021/01/18 08:44:19;;;;;;;16.15;10.77;;;;;;;12.13;62.70;101218.94;5023303;28;20046;-65
2021/01/18 08:46:45;;;;;;;20.13;12.02;;;;;;;12.04;63.18;101214.38;5025723;28;20072;-66
2021/01/18 08:49:10;;;;;;;23.08;13.10;;;;;;;11.88;63.33;101212.38;5024793;28;20065;-66
2021/01/18 08:51:35;;;;;;;12.88;8.60;;;;;;;11.82;63.21;101218.41;5024838;28;20695;-66
2021/01/18 08:54:01;;;;;;;8.10;5.95;;;;;;;11.69;62.63;101221.66;5030601;28;20466;-66
2021/01/18 08:56:26;;;;;;;13.27;6.65;;;;;;;11.56;63.16;101214.34;5030075;28;20072;-66
2021/01/18 08:58:51;;;;;;;8.90;2.45;;;;;;;11.40;63.03;101217.59;5028466;28;20506;-65
2021/01/18 09:01:17;;;;;;;6.40;2.00;;;;;;;11.25;63.20;101212.88;5014875;28;20525;-65
2021/01/18 09:03:42;;;;;;;11.57;7.32;;;;;;;11.19;63.95;101197.81;5029209;28;20394;-65
2021/01/18 09:06:08;;;;;;;5.55;2.28;;;;;;;11.18;63.83;101190.72;5028668;28;20069;-65
2021/01/18 09:08:34;;;;;;;8.38;3.03;;;;;;;11.11;64.00;101187.94;5030034;28;20398;-65
2021/01/18 09:11:00;;;;;;;7.13;3.17;;;;;;;11.06;63.54;101197.53;5045853;28;20033;-65
2021/01/18 09:13:25;;;;;;;10.73;3.90;;;;;;;11.01;64.27;101196.53;5037572;28;20057;-65
2021/01/18 09:15:50;;;;;;;9.93;4.00;;;;;;;10.86;63.75;101209.41;5029973;28;20045;-64
2021/01/18 09:18:16;;;;;;;12.15;4.82;;;;;;;10.77;64.54;101202.19;5029988;28;20091;-64
2021/01/18 09:20:41;;;;;;;13.45;4.95;;;;;;;10.69;64.08;101202.03;5029304;28;20049;-65
2021/01/18 09:23:07;;;;;;;7.25;4.00;;;;;;;10.63;64.91;101199.22;5013200;28;20037;-65
2021/01/18 09:25:32;;;;;;;8.65;3.92;;;;;;;10.51;64.92;101187.50;5033494;28;20037;-64
2021/01/18 09:27:58;;;;;;;4.07;2.20;;;;;;;10.44;64.78;101175.91;5036229;28;20066;-63
2021/01/18 09:30:23;;;;;;;3.10;2.03;;;;;;;10.24;65.36;101186.00;5011250;28;20406;-64
2021/01/18 09:32:49;;;;;;;5.05;2.22;;;;;;;10.06;65.11;101179.38;5010429;28;20065;-62
2021/01/18 09:35:14;;;;;;;4.78;2.08;;;;;;;10.04;65.07;101184.66;5041415;28;20030;-63
2021/01/18 09:37:39;;;;;;;5.22;2.78;;;;;;;9.99;65.32;101175.69;5045680;28;20051;-62
2021/01/18 09:40:07;;;;;;;4.22;1.20;;;;;;;9.97;65.41;101175.69;5045465;28;20034;-62
2021/01/18 09:42:32;;;;;;;8.07;2.17;;;;;;;9.88;65.87;101169.28;5028317;28;20033;-62
2021/01/18 09:44:58;;;;;;;3.28;1.92;;;;;;;9.89;66.04;101166.69;5041509;28;20036;-62
2021/01/18 09:47:23;;;;;;;10.30;2.97;;;;;;;9.92;65.83;101163.22;5025488;28;20049;-62
2021/01/18 09:49:49;;;;;;;6.25;2.47;;;;;;;9.99;65.83;101151.97;5030197;28;20030;-62
2021/01/18 09:52:14;;;;;;;3.13;2.38;;;;;;;10.01;66.03;101152.91;5029241;28;20037;-62
2021/01/18 09:54:39;;;;;;;3.88;1.35;;;;;;;9.94;66.44;101159.78;5030037;28;20038;-62
2021/01/18 09:57:05;;;;;;;11.07;2.53;;;;;;;9.91;65.96;101153.56;5025053;28;20037;-62
2021/01/18 09:59:30;;;;;;;7.38;2.80;;;;;;;9.82;66.05;101125.22;5013254;28;20045;-63
2021/01/18 10:01:55;;;;;;;8.63;2.00;;;;;;;9.73;66.18;101117.06;5009831;28;20134;-62
2021/01/18 10:04:22;;;;;;;3.90;1.65;;;;;;;9.73;66.70;101124.06;5034883;28;20553;-63
2021/01/18 10:06:47;;;;;;;2.63;0.75;;;;;;;9.67;66.35;101126.56;5040294;28;20041;-64
2021/01/18 10:09:13;;;;;;;6.20;1.48;;;;;;;9.49;66.62;101109.44;5028450;28;20490;-70
2021/01/18 10:11:38;;;;;;;8.00;1.33;;;;;;;9.39;66.35;101109.16;5028600;28;20042;-64
2021/01/18 10:14:03;;;;;;;2.45;0.90;;;;;;;9.30;66.48;101109.81;5026982;28;20490;-64
2021/01/18 10:16:29;;;;;;;9.82;1.02;;;;;;;9.22;66.70;101124.53;5023396;28;20057;-63
2021/01/18 10:18:54;;;;;;;2.38;1.13;;;;;;;9.06;66.75;101128.47;5024396;28;20529;-63
2021/01/18 10:21:20;;;;;;;6.78;1.02;;;;;;;9.03;67.08;101133.69;5021668;28;20053;-63
2021/01/18 10:23:45;;;;;;;1.33;0.40;;;;;;;8.98;67.02;101129.13;5027622;28;20123;-63
2021/01/18 10:26:10;;;;;;;3.60;0.60;;;;;;;8.90;67.05;101122.75;5019663;28;20042;-64
2021/01/18 10:28:36;;;;;;;5.10;0.40;;;;;;;8.71;67.06;101123.97;5021592;28;20067;-62
2021/01/18 10:31:01;;;;;;;3.22;0.47;;;;;;;8.62;67.27;101123.69;5028057;28;20049;-64
2021/01/18 10:33:26;;;;;;;1.15;0.35;;;;;;;8.53;67.40;101119.09;5028035;28;20621;-63
2021/01/18 10:35:52;;;;;;;7.90;1.58;;;;;;;8.49;67.79;101125.09;5025066;28;20176;-62
2021/01/18 10:38:17;;;;;;;26.73;15.80;;;;;;;8.50;67.51;101115.47;5027445;28;20067;-64
2021/01/18 10:40:44;;;;;;;51.15;26.90;;;;;;;8.56;67.72;101106.00;5028336;28;20037;-63
2021/01/18 10:43:10;;;;;;;6.40;2.38;;;;;;;8.58;67.80;101083.28;5027395;28;20111;-63
2021/01/18 10:45:35;;;;;;;14.07;6.85;;;;;;;8.60;67.60;101046.47;5033770;28;20064;-63
2021/01/18 10:48:00;;;;;;;4.30;2.88;;;;;;;8.62;67.92;101039.50;5033128;28;20034;-63
2021/01/18 10:50:26;;;;;;;6.07;1.25;;;;;;;8.78;67.78;101041.72;5021937;28;20045;-64
2021/01/18 10:52:51;;;;;;;9.85;7.65;;;;;;;8.95;67.89;101029.00;5042870;28;20044;-63
2021/01/18 10:55:18;;;;;;;1.05;0.45;;;;;;;8.98;67.86;101022.09;5031271;28;20120;-64
2021/01/18 10:57:45;;;;;;;6.00;3.65;;;;;;;9.08;67.65;101015.28;5028462;28;20041;-63
2021/01/18 11:00:10;;;;;;;7.25;6.55;;;;;;;9.11;67.83;101018.91;5028186;28;20095;-64
2021/01/18 11:02:36;;;;;;;5.45;2.67;;;;;;;9.19;67.72;101008.53;5029181;28;20761;-65
2021/01/18 11:05:01;;;;;;;7.95;5.13;;;;;;;9.30;67.81;101009.72;5030468;28;20034;-64
2021/01/18 11:07:26;;;;;;;14.98;8.35;;;;;;;9.38;67.82;101002.00;5031836;28;20056;-64
2021/01/18 11:09:53;;;;;;;30.45;19.50;;;;;;;9.45;67.58;100991.63;5026691;28;20038;-63
2021/01/18 11:12:18;;;;;;;29.88;26.23;;;;;;;9.50;67.51;100994.41;5029681;28;20050;-63
2021/01/18 11:14:43;;;;;;;26.85;24.08;;;;;;;9.54;67.73;100985.69;5028776;28;20587;-62